19:34
Airports
History
Links
Donate
Help keep this website running!
PayPal
Bitcoin
Information on this page is community maintained and may be outdated or inaccurate and is intended for reference only or PC simulator navigating.
Always use approved charts for navigating.
LEAS
Asturias
Asturias (LEAS)
Castrillón, Asturias, Spain (33459)
(C)
Lat/Lng:43° 33' 48.59" N / 6° 2' 4.81" W
43.563496 / -6.03467
Elevation:416'ft 127mMSL
ID / ICAO:LEAS
Runways:1
Longest:(11-29) 2,204.8m 7,234ft Asphalt
Controlled:Yes
Distance To
Airport ID:
Airport Radio Frequencies
Ground: 121.7
Tower: 118.15
Approach: 118.15
Nearby VORs <50NM
Nearby NDBs
METARUpdated 05-27-17 19:10 GMT
Altimeter: 29.94
Visibility: 1.9 statute miles
Wind: 2 knots (VRB°)
Temp: 16°c 61°f
Humidity: 93.8%

METAR: LEAS 271910Z VRB02KT 3000 0800W PRFG BKN001 BKN007 16/15 Q1014 TEMPO 0500 FG VV001

(Powered by phpweather)
Runway 11 / 29
Dimensions:2204.8 x 45.1m 7234' x 148'ft
Surface:Asphalt
Edge Lights:High intensity
Runway 11 [A]Runway 29 [B]
Heading:108°TH 288°TH
Lat:
Lng:
43° 33' 59.64"N
6° 2' 51.51"W
43° 33' 37.53"N
6° 1' 18.12"W
ALS:Calvert ILS Cat II
User Notes and Comments
Google Map
Nearby Airports
(U) LA MORGAL 13.8 NM
LEMR SE 132°
(C) Leon 69.9 NM
LELN (WX) SSE 163°
(U) Rozas 78.5 NM
LERO WSW 246°
(C) Santander 111.4 NM
LEXJ (WX) E 94°
(C) A Coruna 118.9 NM
LECO (WX) W 261°
(U) BRAGANCA 122.7 NM
LPBG SSW 196°
(C) Santiago 128.4 NM
LEST (WX) WSW 249°
VFR Chart
Flight Planning at SkyVector.com